sensor_id;sensor_type;location;lat;lon;timestamp;pressure;altitude;pressure_sealevel;temperature;humidity
4199;BME280;2113;50.946;14.610;2022-10-10T00:01:34;97637.63;;;9.14;62.13
4199;BME280;2113;50.946;14.610;2022-10-10T00:04:04;97630.47;;;9.26;61.59
4199;BME280;2113;50.946;14.610;2022-10-10T00:06:34;97628.53;;;9.34;61.86
4199;BME280;2113;50.946;14.610;2022-10-10T00:09:03;97627.38;;;9.08;62.77
4199;BME280;2113;50.946;14.610;2022-10-10T00:11:32;97627.38;;;9.08;62.66
4199;BME280;2113;50.946;14.610;2022-10-10T00:14:01;97623.63;;;9.21;62.74
4199;BME280;2113;50.946;14.610;2022-10-10T00:16:29;97617.06;;;9.05;63.17
4199;BME280;2113;50.946;14.610;2022-10-10T00:18:58;97614.59;;;9.00;63.41
4199;BME280;2113;50.946;14.610;2022-10-10T00:21:27;97611.53;;;9.20;63.02
4199;BME280;2113;50.946;14.610;2022-10-10T00:23:56;97608.59;;;8.97;63.13
4199;BME280;2113;50.946;14.610;2022-10-10T00:26:26;97605.97;;;8.98;63.63
4199;BME280;2113;50.946;14.610;2022-10-10T00:28:55;97610.25;;;9.01;63.22
4199;BME280;2113;50.946;14.610;2022-10-10T00:31:23;97606.69;;;9.05;62.41
4199;BME280;2113;50.946;14.610;2022-10-10T00:33:52;97600.69;;;9.03;62.25
4199;BME280;2113;50.946;14.610;2022-10-10T00:36:20;97594.72;;;8.98;62.96
4199;BME280;2113;50.946;14.610;2022-10-10T00:38:49;97605.91;;;9.01;62.67
4199;BME280;2113;50.946;14.610;2022-10-10T00:41:18;97604.84;;;9.10;62.44
4199;BME280;2113;50.946;14.610;2022-10-10T00:44:07;97601.91;;;8.87;62.86
4199;BME280;2113;50.946;14.610;2022-10-10T00:46:35;97599.38;;;8.84;62.48
4199;BME280;2113;50.946;14.610;2022-10-10T00:49:07;97596.31;;;8.65;62.99
4199;BME280;2113;50.946;14.610;2022-10-10T00:51:37;97597.59;;;8.86;62.77
4199;BME280;2113;50.946;14.610;2022-10-10T00:54:08;97596.75;;;8.85;62.08
4199;BME280;2113;50.946;14.610;2022-10-10T00:56:41;97595.13;;;8.81;62.55
4199;BME280;2113;50.946;14.610;2022-10-10T00:59:11;97595.59;;;8.58;62.99
4199;BME280;2113;50.946;14.610;2022-10-10T01:01:41;97588.69;;;8.57;63.32
4199;BME280;2113;50.946;14.610;2022-10-10T01:04:29;97586.16;;;8.54;64.25
4199;BME280;2113;50.946;14.610;2022-10-10T01:06:58;97593.34;;;8.39;64.23
4199;BME280;2113;50.946;14.610;2022-10-10T01:09:28;97587.56;;;8.70;63.29
4199;BME280;2113;50.946;14.610;2022-10-10T01:12:03;97575.06;;;8.49;63.55
4199;BME280;2113;50.946;14.610;2022-10-10T01:14:42;97573.50;;;8.80;61.74
4199;BME280;2113;50.946;14.610;2022-10-10T01:17:18;97565.19;;;9.05;60.81
4199;BME280;2113;50.946;14.610;2022-10-10T01:20:26;97560.16;;;9.36;58.28
4199;BME280;2113;50.946;14.610;2022-10-10T01:23:11;97551.94;;;9.53;57.71
4199;BME280;2113;50.946;14.610;2022-10-10T01:25:56;97553.97;;;9.42;57.28
4199;BME280;2113;50.946;14.610;2022-10-10T01:28:35;97541.59;;;9.86;56.32
4199;BME280;2113;50.946;14.610;2022-10-10T01:31:09;97535.03;;;9.73;56.82
4199;BME280;2113;50.946;14.610;2022-10-10T01:33:46;97540.31;;;9.68;56.05
4199;BME280;2113;50.946;14.610;2022-10-10T01:36:21;97533.88;;;9.83;56.70
4199;BME280;2113;50.946;14.610;2022-10-10T01:38:58;97536.63;;;9.44;56.40
4199;BME280;2113;50.946;14.610;2022-10-10T01:41:33;97526.47;;;9.69;56.31
4199;BME280;2113;50.946;14.610;2022-10-10T01:44:05;97530.13;;;9.93;55.73
4199;BME280;2113;50.946;14.610;2022-10-10T01:46:33;97523.41;;;9.86;55.66
4199;BME280;2113;50.946;14.610;2022-10-10T01:49:02;97527.31;;;9.70;55.98
4199;BME280;2113;50.946;14.610;2022-10-10T01:51:43;97521.53;;;9.91;55.67
4199;BME280;2113;50.946;14.610;2022-10-10T01:54:30;97515.53;;;9.89;55.51
4199;BME280;2113;50.946;14.610;2022-10-10T01:57:11;97518.38;;;9.80;55.34
4199;BME280;2113;50.946;14.610;2022-10-10T01:59:51;97512.75;;;9.95;55.11
4199;BME280;2113;50.946;14.610;2022-10-10T02:02:28;97514.72;;;9.87;55.45
4199;BME280;2113;50.946;14.610;2022-10-10T02:05:03;97516.84;;;9.73;55.94
4199;BME280;2113;50.946;14.610;2022-10-10T02:07:40;97514.00;;;9.82;55.76
4199;BME280;2113;50.946;14.610;2022-10-10T02:10:11;97506.22;;;9.82;55.70
4199;BME280;2113;50.946;14.610;2022-10-10T02:12:42;97505.31;;;9.83;55.24
4199;BME280;2113;50.946;14.610;2022-10-10T02:15:16;97491.56;;;9.79;55.45
4199;BME280;2113;50.946;14.610;2022-10-10T02:17:48;97499.38;;;9.78;55.61
4199;BME280;2113;50.946;14.610;2022-10-10T02:20:20;97502.88;;;9.77;55.14
4199;BME280;2113;50.946;14.610;2022-10-10T02:22:53;97495.72;;;9.85;55.16
4199;BME280;2113;50.946;14.610;2022-10-10T02:25:27;97492.13;;;9.58;56.09
4199;BME280;2113;50.946;14.610;2022-10-10T02:28:05;97494.06;;;9.83;55.36
4199;BME280;2113;50.946;14.610;2022-10-10T02:30:39;97495.19;;;9.72;55.35
4199;BME280;2113;50.946;14.610;2022-10-10T02:33:12;97490.22;;;9.65;56.10
4199;BME280;2113;50.946;14.610;2022-10-10T02:35:44;97484.91;;;9.69;55.72
4199;BME280;2113;50.946;14.610;2022-10-10T02:38:16;97492.00;;;9.63;55.43
4199;BME280;2113;50.946;14.610;2022-10-10T02:40:46;97482.34;;;9.68;55.27
4199;BME280;2113;50.946;14.610;2022-10-10T02:43:16;97482.19;;;9.74;55.44
4199;BME280;2113;50.946;14.610;2022-10-10T02:45:47;97478.66;;;9.76;55.21
4199;BME280;2113;50.946;14.610;2022-10-10T02:48:16;97473.03;;;9.59;55.39
4199;BME280;2113;50.946;14.610;2022-10-10T02:50:45;97481.59;;;9.63;55.79
4199;BME280;2113;50.946;14.610;2022-10-10T02:53:13;97482.59;;;9.58;55.65
4199;BME280;2113;50.946;14.610;2022-10-10T02:55:42;97480.44;;;9.74;55.36
4199;BME280;2113;50.946;14.610;2022-10-10T02:58:10;97477.41;;;9.58;55.61
4199;BME280;2113;50.946;14.610;2022-10-10T03:00:39;97474.06;;;9.53;55.79
4199;BME280;2113;50.946;14.610;2022-10-10T03:03:10;97479.59;;;9.74;55.46
4199;BME280;2113;50.946;14.610;2022-10-10T03:05:39;97476.78;;;9.49;55.95
4199;BME280;2113;50.946;14.610;2022-10-10T03:08:08;97467.63;;;9.68;55.73
4199;BME280;2113;50.946;14.610;2022-10-10T03:10:38;97479.50;;;9.44;56.33
4199;BME280;2113;50.946;14.610;2022-10-10T03:13:06;97469.16;;;9.43;55.94
4199;BME280;2113;50.946;14.610;2022-10-10T03:15:35;97476.81;;;9.47;55.93
4199;BME280;2113;50.946;14.610;2022-10-10T03:18:03;97472.03;;;9.65;55.71
4199;BME280;2113;50.946;14.610;2022-10-10T03:20:33;97463.53;;;9.59;56.50
4199;BME280;2113;50.946;14.610;2022-10-10T03:23:02;97470.25;;;9.67;55.74
4199;BME280;2113;50.946;14.610;2022-10-10T03:25:30;97465.31;;;9.57;55.69
4199;BME280;2113;50.946;14.610;2022-10-10T03:28:00;97457.75;;;9.81;55.17
4199;BME280;2113;50.946;14.610;2022-10-10T03:30:29;97465.22;;;9.60;56.03
4199;BME280;2113;50.946;14.610;2022-10-10T03:32:57;97464.88;;;9.40;56.08
4199;BME280;2113;50.946;14.610;2022-10-10T03:35:26;97453.28;;;9.86;55.30
4199;BME280;2113;50.946;14.610;2022-10-10T03:37:56;97462.75;;;9.89;55.32
4199;BME280;2113;50.946;14.610;2022-10-10T03:40:26;97457.38;;;9.64;56.13
4199;BME280;2113;50.946;14.610;2022-10-10T03:42:55;97449.34;;;9.73;55.85
4199;BME280;2113;50.946;14.610;2022-10-10T03:45:23;97448.19;;;9.50;56.42
4199;BME280;2113;50.946;14.610;2022-10-10T03:47:52;97446.78;;;9.71;55.72
4199;BME280;2113;50.946;14.610;2022-10-10T03:50:20;97437.34;;;9.69;56.07
4199;BME280;2113;50.946;14.610;2022-10-10T03:52:49;97430.41;;;9.68;56.05
4199;BME280;2113;50.946;14.610;2022-10-10T03:55:19;97433.91;;;9.67;55.76
4199;BME280;2113;50.946;14.610;2022-10-10T03:57:47;97435.63;;;9.68;56.08
4199;BME280;2113;50.946;14.610;2022-10-10T04:00:15;97446.47;;;9.49;55.58
4199;BME280;2113;50.946;14.610;2022-10-10T04:02:44;97433.31;;;9.88;54.92
4199;BME280;2113;50.946;14.610;2022-10-10T04:05:12;97431.75;;;10.12;54.44
4199;BME280;2113;50.946;14.610;2022-10-10T04:07:40;97444.38;;;9.95;54.79
4199;BME280;2113;50.946;14.610;2022-10-10T04:10:08;97439.44;;;9.86;54.71
4199;BME280;2113;50.946;14.610;2022-10-10T04:12:38;97434.09;;;9.59;55.70
4199;BME280;2113;50.946;14.610;2022-10-10T04:15:07;97439.38;;;9.89;55.16
4199;BME280;2113;50.946;14.610;2022-10-10T04:17:35;97437.16;;;9.75;55.12
4199;BME280;2113;50.946;14.610;2022-10-10T04:20:04;97432.41;;;9.89;55.23
4199;BME280;2113;50.946;14.610;2022-10-10T04:22:32;97433.06;;;9.97;54.61
4199;BME280;2113;50.946;14.610;2022-10-10T04:25:00;97441.56;;;10.03;54.48
4199;BME280;2113;50.946;14.610;2022-10-10T04:27:29;97432.19;;;9.97;54.25
4199;BME280;2113;50.946;14.610;2022-10-10T04:29:58;97430.38;;;10.32;53.83
4199;BME280;2113;50.946;14.610;2022-10-10T04:32:27;97426.09;;;9.99;54.11
4199;BME280;2113;50.946;14.610;2022-10-10T04:34:55;97424.56;;;9.92;54.57
4199;BME280;2113;50.946;14.610;2022-10-10T04:37:24;97425.28;;;9.97;53.97
4199;BME280;2113;50.946;14.610;2022-10-10T04:39:52;97427.44;;;10.13;54.46
4199;BME280;2113;50.946;14.610;2022-10-10T04:42:20;97434.31;;;9.84;54.74
4199;BME280;2113;50.946;14.610;2022-10-10T04:44:48;97415.09;;;9.90;54.97
4199;BME280;2113;50.946;14.610;2022-10-10T04:47:18;97416.63;;;9.66;55.16
4199;BME280;2113;50.946;14.610;2022-10-10T04:49:46;97406.63;;;9.52;55.34
4199;BME280;2113;50.946;14.610;2022-10-10T04:52:15;97409.00;;;9.61;55.11
4199;BME280;2113;50.946;14.610;2022-10-10T04:54:43;97412.44;;;9.62;55.93
4199;BME280;2113;50.946;14.610;2022-10-10T04:57:11;97408.91;;;9.63;55.51
4199;BME280;2113;50.946;14.610;2022-10-10T04:59:39;97399.13;;;9.41;56.76
4199;BME280;2113;50.946;14.610;2022-10-10T05:02:08;97395.09;;;9.31;56.66
4199;BME280;2113;50.946;14.610;2022-10-10T05:04:38;97387.75;;;9.45;56.03
4199;BME280;2113;50.946;14.610;2022-10-10T05:07:06;97389.31;;;9.52;56.61
4199;BME280;2113;50.946;14.610;2022-10-10T05:09:35;97385.72;;;9.56;56.47
4199;BME280;2113;50.946;14.610;2022-10-10T05:12:04;97382.38;;;9.20;57.65
4199;BME280;2113;50.946;14.610;2022-10-10T05:14:33;97380.88;;;9.44;56.30
4199;BME280;2113;50.946;14.610;2022-10-10T05:17:01;97375.25;;;9.28;57.28
4199;BME280;2113;50.946;14.610;2022-10-10T05:19:29;97377.66;;;9.67;55.73
4199;BME280;2113;50.946;14.610;2022-10-10T05:22:00;97366.41;;;9.67;55.81
4199;BME280;2113;50.946;14.610;2022-10-10T05:24:28;97360.06;;;9.77;55.31
4199;BME280;2113;50.946;14.610;2022-10-10T05:26:56;97365.13;;;9.82;55.41
4199;BME280;2113;50.946;14.610;2022-10-10T05:29:25;97362.19;;;10.22;54.92
4199;BME280;2113;50.946;14.610;2022-10-10T05:31:53;97358.81;;;9.90;55.04
4199;BME280;2113;50.946;14.610;2022-10-10T05:34:22;97363.38;;;10.12;54.67
4199;BME280;2113;50.946;14.610;2022-10-10T05:36:50;97354.69;;;10.41;54.18
4199;BME280;2113;50.946;14.610;2022-10-10T05:39:20;97353.97;;;10.37;54.06
4199;BME280;2113;50.946;14.610;2022-10-10T05:41:48;97344.69;;;10.57;53.83
4199;BME280;2113;50.946;14.610;2022-10-10T05:44:17;97347.97;;;10.62;53.83
4199;BME280;2113;50.946;14.610;2022-10-10T05:46:46;97349.16;;;10.52;54.09
4199;BME280;2113;50.946;14.610;2022-10-10T05:49:14;97342.38;;;10.74;53.39
4199;BME280;2113;50.946;14.610;2022-10-10T05:51:42;97345.19;;;10.68;53.77
4199;BME280;2113;50.946;14.610;2022-10-10T05:54:11;97345.34;;;10.89;52.51
4199;BME280;2113;50.946;14.610;2022-10-10T05:56:41;97347.50;;;11.03;52.65
4199;BME280;2113;50.946;14.610;2022-10-10T05:59:09;97334.56;;;11.01;52.60
4199;BME280;2113;50.946;14.610;2022-10-10T06:01:38;97330.09;;;11.05;53.05
4199;BME280;2113;50.946;14.610;2022-10-10T06:04:06;97339.16;;;10.93;53.01
4199;BME280;2113;50.946;14.610;2022-10-10T06:06:35;97336.31;;;11.49;51.57
4199;BME280;2113;50.946;14.610;2022-10-10T06:09:03;97337.31;;;11.22;51.87
4199;BME280;2113;50.946;14.610;2022-10-10T06:11:32;97336.69;;;11.39;52.16
4199;BME280;2113;50.946;14.610;2022-10-10T06:14:02;97334.91;;;11.15;52.19
4199;BME280;2113;50.946;14.610;2022-10-10T06:16:30;97332.75;;;11.52;51.92
4199;BME280;2113;50.946;14.610;2022-10-10T06:18:58;97344.59;;;11.37;52.01
4199;BME280;2113;50.946;14.610;2022-10-10T06:21:26;97335.78;;;11.65;51.84
4199;BME280;2113;50.946;14.610;2022-10-10T06:23:55;97332.19;;;11.67;51.24
4199;BME280;2113;50.946;14.610;2022-10-10T06:26:24;97330.22;;;11.74;51.27
4199;BME280;2113;50.946;14.610;2022-10-10T06:28:53;97329.19;;;11.78;50.65
4199;BME280;2113;50.946;14.610;2022-10-10T06:31:23;97328.16;;;12.29;49.65
4199;BME280;2113;50.946;14.610;2022-10-10T06:33:51;97330.72;;;11.84;50.57
4199;BME280;2113;50.946;14.610;2022-10-10T06:36:19;97330.63;;;11.87;51.25
4199;BME280;2113;50.946;14.610;2022-10-10T06:38:48;97318.22;;;11.70;51.70
4199;BME280;2113;50.946;14.610;2022-10-10T06:41:17;97321.28;;;11.81;52.51
4199;BME280;2113;50.946;14.610;2022-10-10T06:43:45;97319.47;;;11.83;52.07
4199;BME280;2113;50.946;14.610;2022-10-10T06:46:15;97323.06;;;11.55;53.04
4199;BME280;2113;50.946;14.610;2022-10-10T06:48:44;97311.94;;;11.75;52.36
4199;BME280;2113;50.946;14.610;2022-10-10T06:51:15;97320.38;;;11.59;52.60
4199;BME280;2113;50.946;14.610;2022-10-10T06:53:44;97317.94;;;11.78;52.97
4199;BME280;2113;50.946;14.610;2022-10-10T06:56:13;97317.44;;;11.91;52.28
4199;BME280;2113;50.946;14.610;2022-10-10T06:58:53;97301.97;;;12.32;51.23
4199;BME280;2113;50.946;14.610;2022-10-10T07:01:23;97315.03;;;13.76;47.93
4199;BME280;2113;50.946;14.610;2022-10-10T07:03:54;97309.63;;;14.17;46.23
4199;BME280;2113;50.946;14.610;2022-10-10T07:06:23;97311.22;;;16.88;40.07
4199;BME280;2113;50.946;14.610;2022-10-10T07:08:51;97330.78;;;16.20;41.06
4199;BME280;2113;50.946;14.610;2022-10-10T07:11:19;97324.56;;;16.21;41.80
4199;BME280;2113;50.946;14.610;2022-10-10T07:13:48;97326.66;;;18.38;37.22
4199;BME280;2113;50.946;14.610;2022-10-10T07:16:18;97323.47;;;15.27;43.11
4199;BME280;2113;50.946;14.610;2022-10-10T07:18:46;97338.19;;;14.03;46.85
4199;BME280;2113;50.946;14.610;2022-10-10T07:21:16;97325.59;;;13.13;49.04
4199;BME280;2113;50.946;14.610;2022-10-10T07:23:44;97332.81;;;13.27;49.10
4199;BME280;2113;50.946;14.610;2022-10-10T07:26:14;97319.59;;;14.64;46.16
4199;BME280;2113;50.946;14.610;2022-10-10T07:28:46;97326.59;;;13.89;47.91
4199;BME280;2113;50.946;14.610;2022-10-10T07:31:15;97317.13;;;14.06;48.26
4199;BME280;2113;50.946;14.610;2022-10-10T07:33:45;97319.97;;;12.81;50.15
4199;BME280;2113;50.946;14.610;2022-10-10T07:36:18;97327.91;;;12.58;52.01
4199;BME280;2113;50.946;14.610;2022-10-10T07:38:48;97317.63;;;12.96;50.64
4199;BME280;2113;50.946;14.610;2022-10-10T07:41:19;97322.16;;;13.33;50.15
4199;BME280;2113;50.946;14.610;2022-10-10T07:43:53;97314.16;;;12.75;51.74
4199;BME280;2113;50.946;14.610;2022-10-10T07:46:22;97320.16;;;13.18;50.50
4199;BME280;2113;50.946;14.610;2022-10-10T07:48:50;97325.53;;;13.15;51.32
4199;BME280;2113;50.946;14.610;2022-10-10T07:51:20;97317.94;;;13.08;50.86
4199;BME280;2113;50.946;14.610;2022-10-10T07:53:50;97322.53;;;12.61;52.07
4199;BME280;2113;50.946;14.610;2022-10-10T07:56:19;97322.22;;;13.71;49.60
4199;BME280;2113;50.946;14.610;2022-10-10T07:58:47;97321.78;;;13.61;50.32
4199;BME280;2113;50.946;14.610;2022-10-10T08:01:16;97325.91;;;13.26;50.59
4199;BME280;2113;50.946;14.610;2022-10-10T08:03:45;97328.03;;;13.78;49.88
4199;BME280;2113;50.946;14.610;2022-10-10T08:06:15;97319.38;;;13.16;50.60
4199;BME280;2113;50.946;14.610;2022-10-10T08:08:47;97323.16;;;13.29;50.86
4199;BME280;2113;50.946;14.610;2022-10-10T08:11:18;97326.16;;;13.61;50.22
4199;BME280;2113;50.946;14.610;2022-10-10T08:13:47;97320.91;;;13.42;50.82
4199;BME280;2113;50.946;14.610;2022-10-10T08:16:15;97332.25;;;13.80;49.54
4199;BME280;2113;50.946;14.610;2022-10-10T08:18:44;97316.56;;;14.18;49.33
4199;BME280;2113;50.946;14.610;2022-10-10T08:21:13;97313.41;;;15.69;46.46
4199;BME280;2113;50.946;14.610;2022-10-10T08:23:42;97307.06;;;16.06;45.53
4199;BME280;2113;50.946;14.610;2022-10-10T08:26:13;97309.00;;;14.67;47.38
4199;BME280;2113;50.946;14.610;2022-10-10T08:28:43;97308.63;;;14.75;47.09
4199;BME280;2113;50.946;14.610;2022-10-10T08:31:13;97304.81;;;14.63;48.36
4199;BME280;2113;50.946;14.610;2022-10-10T08:33:43;97308.09;;;14.49;48.09
4199;BME280;2113;50.946;14.610;2022-10-10T08:36:14;97306.47;;;15.34;46.40
4199;BME280;2113;50.946;14.610;2022-10-10T08:38:43;97294.13;;;15.03;46.94
4199;BME280;2113;50.946;14.610;2022-10-10T08:41:19;97300.31;;;15.35;46.26
4199;BME280;2113;50.946;14.610;2022-10-10T08:43:54;97296.25;;;15.63;46.07
4199;BME280;2113;50.946;14.610;2022-10-10T08:46:32;97287.03;;;16.05;45.11
4199;BME280;2113;50.946;14.610;2022-10-10T08:49:11;97274.06;;;16.02;45.02
4199;BME280;2113;50.946;14.610;2022-10-10T08:51:46;97287.59;;;16.10;46.07
4199;BME280;2113;50.946;14.610;2022-10-10T08:54:16;97280.91;;;15.55;45.90
4199;BME280;2113;50.946;14.610;2022-10-10T08:56:49;97271.84;;;16.42;44.93
4199;BME280;2113;50.946;14.610;2022-10-10T08:59:22;97278.03;;;16.71;43.89
4199;BME280;2113;50.946;14.610;2022-10-10T09:01:54;97272.19;;;16.82;43.12
4199;BME280;2113;50.946;14.610;2022-10-10T09:04:45;97271.97;;;17.73;42.84
4199;BME280;2113;50.946;14.610;2022-10-10T09:07:21;97263.03;;;19.11;39.43
4199;BME280;2113;50.946;14.610;2022-10-10T09:09:58;97271.03;;;17.74;42.38
4199;BME280;2113;50.946;14.610;2022-10-10T09:12:36;97267.09;;;17.67;41.93
4199;BME280;2113;50.946;14.610;2022-10-10T09:15:14;97266.09;;;16.19;44.38
4199;BME280;2113;50.946;14.610;2022-10-10T09:17:50;97261.56;;;17.28;42.41
4199;BME280;2113;50.946;14.610;2022-10-10T09:20:32;97278.44;;;17.96;41.89
4199;BME280;2113;50.946;14.610;2022-10-10T09:23:07;97277.78;;;20.28;37.37
4199;BME280;2113;50.946;14.610;2022-10-10T09:25:45;97282.09;;;18.62;38.76
4199;BME280;2113;50.946;14.610;2022-10-10T09:28:21;97286.34;;;19.30;38.02
4199;BME280;2113;50.946;14.610;2022-10-10T09:30:56;97283.34;;;18.29;39.61
4199;BME280;2113;50.946;14.610;2022-10-10T09:33:31;97277.97;;;18.85;40.20
4199;BME280;2113;50.946;14.610;2022-10-10T09:36:06;97281.56;;;16.86;43.12
4199;BME280;2113;50.946;14.610;2022-10-10T09:38:40;97285.88;;;16.57;45.07
4199;BME280;2113;50.946;14.610;2022-10-10T09:41:14;97298.53;;;15.02;47.53
4199;BME280;2113;50.946;14.610;2022-10-10T09:43:46;97282.03;;;15.18;47.46
4199;BME280;2113;50.946;14.610;2022-10-10T09:46:15;97282.97;;;15.66;46.65
4199;BME280;2113;50.946;14.610;2022-10-10T09:48:43;97280.19;;;16.18;45.25
4199;BME280;2113;50.946;14.610;2022-10-10T09:51:14;97280.09;;;16.96;43.72
4199;BME280;2113;50.946;14.610;2022-10-10T09:53:44;97287.97;;;17.41;42.95
4199;BME280;2113;50.946;14.610;2022-10-10T09:56:16;97290.59;;;17.41;43.99
4199;BME280;2113;50.946;14.610;2022-10-10T09:58:47;97287.06;;;17.12;44.51
4199;BME280;2113;50.946;14.610;2022-10-10T10:01:18;97287.56;;;17.61;42.25
4199;BME280;2113;50.946;14.610;2022-10-10T10:04:11;97279.63;;;17.04;43.16
4199;BME280;2113;50.946;14.610;2022-10-10T10:07:03;97269.91;;;17.35;43.74
4199;BME280;2113;50.946;14.610;2022-10-10T10:09:32;97267.53;;;16.87;44.95
4199;BME280;2113;50.946;14.610;2022-10-10T10:12:03;97270.09;;;16.27;46.00
4199;BME280;2113;50.946;14.610;2022-10-10T10:14:37;97263.75;;;16.15;45.32
4199;BME280;2113;50.946;14.610;2022-10-10T10:17:07;97263.38;;;16.53;46.21
4199;BME280;2113;50.946;14.610;2022-10-10T10:19:38;97273.56;;;15.79;46.45
4199;BME280;2113;50.946;14.610;2022-10-10T10:22:23;97272.50;;;15.66;46.59
4199;BME280;2113;50.946;14.610;2022-10-10T10:24:53;97271.19;;;15.75;47.12
4199;BME280;2113;50.946;14.610;2022-10-10T10:27:24;97263.53;;;15.70;46.89
4199;BME280;2113;50.946;14.610;2022-10-10T10:29:56;97267.59;;;16.55;46.67
4199;BME280;2113;50.946;14.610;2022-10-10T10:32:43;97262.34;;;17.45;43.41
4199;BME280;2113;50.946;14.610;2022-10-10T10:35:22;97260.34;;;17.77;42.56
4199;BME280;2113;50.946;14.610;2022-10-10T10:38:05;97262.06;;;16.90;44.68
4199;BME280;2113;50.946;14.610;2022-10-10T10:40:39;97260.06;;;17.53;43.52
4199;BME280;2113;50.946;14.610;2022-10-10T10:43:22;97251.31;;;17.67;44.33
4199;BME280;2113;50.946;14.610;2022-10-10T10:46:02;97251.94;;;16.84;44.59
4199;BME280;2113;50.946;14.610;2022-10-10T10:48:38;97249.88;;;18.31;42.76
4199;BME280;2113;50.946;14.610;2022-10-10T10:51:22;97256.19;;;17.73;43.54
4199;BME280;2113;50.946;14.610;2022-10-10T10:54:04;97256.47;;;17.25;43.97
4199;BME280;2113;50.946;14.610;2022-10-10T10:56:37;97250.22;;;18.12;42.84
4199;BME280;2113;50.946;14.610;2022-10-10T10:59:32;97251.94;;;17.99;43.53
4199;BME280;2113;50.946;14.610;2022-10-10T11:02:33;97251.06;;;17.57;44.22
4199;BME280;2113;50.946;14.610;2022-10-10T11:05:34;97237.72;;;17.60;44.30
4199;BME280;2113;50.946;14.610;2022-10-10T11:08:27;97241.09;;;17.05;45.54
4199;BME280;2113;50.946;14.610;2022-10-10T11:11:09;97251.97;;;17.27;45.69
4199;BME280;2113;50.946;14.610;2022-10-10T11:13:47;97236.03;;;17.73;44.23
4199;BME280;2113;50.946;14.610;2022-10-10T11:16:22;97249.06;;;17.17;44.86
4199;BME280;2113;50.946;14.610;2022-10-10T11:19:20;97237.16;;;17.12;44.12
4199;BME280;2113;50.946;14.610;2022-10-10T11:21:57;97248.78;;;17.08;45.66
4199;BME280;2113;50.946;14.610;2022-10-10T11:24:35;97245.66;;;16.87;46.12
4199;BME280;2113;50.946;14.610;2022-10-10T11:27:11;97248.28;;;16.87;46.57
4199;BME280;2113;50.946;14.610;2022-10-10T11:29:55;97245.06;;;16.81;46.37
4199;BME280;2113;50.946;14.610;2022-10-10T11:32:29;97232.06;;;18.22;43.66
4199;BME280;2113;50.946;14.610;2022-10-10T11:35:11;97237.72;;;17.89;44.27
4199;BME280;2113;50.946;14.610;2022-10-10T11:37:44;97244.72;;;16.88;46.02
4199;BME280;2113;50.946;14.610;2022-10-10T11:40:39;97245.22;;;16.18;47.32
4199;BME280;2113;50.946;14.610;2022-10-10T11:43:16;97238.94;;;16.67;47.10
4199;BME280;2113;50.946;14.610;2022-10-10T11:45:51;97236.69;;;16.75;46.50
4199;BME280;2113;50.946;14.610;2022-10-10T11:48:34;97229.06;;;16.56;47.46
4199;BME280;2113;50.946;14.610;2022-10-10T11:51:26;97233.22;;;16.44;46.98
4199;BME280;2113;50.946;14.610;2022-10-10T11:54:00;97231.44;;;16.75;46.75
4199;BME280;2113;50.946;14.610;2022-10-10T11:56:36;97233.69;;;17.11;46.50
4199;BME280;2113;50.946;14.610;2022-10-10T11:59:13;97223.13;;;16.52;47.44
4199;BME280;2113;50.946;14.610;2022-10-10T12:01:46;97232.34;;;16.59;47.23
4199;BME280;2113;50.946;14.610;2022-10-10T12:04:15;97223.75;;;17.31;46.55
4199;BME280;2113;50.946;14.610;2022-10-10T12:06:49;97216.34;;;18.20;45.79
4199;BME280;2113;50.946;14.610;2022-10-10T12:09:23;97217.59;;;17.88;44.53
4199;BME280;2113;50.946;14.610;2022-10-10T12:11:55;97206.91;;;17.91;45.03
4199;BME280;2113;50.946;14.610;2022-10-10T12:14:28;97212.56;;;17.85;45.20
4199;BME280;2113;50.946;14.610;2022-10-10T12:16:58;97220.25;;;17.73;45.71
4199;BME280;2113;50.946;14.610;2022-10-10T12:19:27;97211.28;;;17.90;45.15
4199;BME280;2113;50.946;14.610;2022-10-10T12:22:00;97211.16;;;18.06;45.13
4199;BME280;2113;50.946;14.610;2022-10-10T12:24:33;97202.75;;;18.81;44.10
4199;BME280;2113;50.946;14.610;2022-10-10T12:27:26;97209.31;;;18.48;44.45
4199;BME280;2113;50.946;14.610;2022-10-10T12:30:19;97216.66;;;17.74;44.69
4199;BME280;2113;50.946;14.610;2022-10-10T12:33:18;97202.88;;;18.12;46.13
4199;BME280;2113;50.946;14.610;2022-10-10T12:35:48;97210.31;;;17.64;45.44
4199;BME280;2113;50.946;14.610;2022-10-10T12:38:22;97206.78;;;17.78;45.25
4199;BME280;2113;50.946;14.610;2022-10-10T12:41:13;97209.84;;;17.43;46.19
4199;BME280;2113;50.946;14.610;2022-10-10T12:43:46;97201.91;;;17.16;46.37
4199;BME280;2113;50.946;14.610;2022-10-10T12:46:27;97197.66;;;17.42;46.30
4199;BME280;2113;50.946;14.610;2022-10-10T12:48:59;97201.47;;;17.65;46.40
4199;BME280;2113;50.946;14.610;2022-10-10T12:51:30;97183.97;;;17.08;47.15
4199;BME280;2113;50.946;14.610;2022-10-10T12:54:03;97201.97;;;17.43;47.03
4199;BME280;2113;50.946;14.610;2022-10-10T12:56:39;97189.63;;;17.72;47.24
4199;BME280;2113;50.946;14.610;2022-10-10T12:59:19;97199.03;;;17.48;46.23
4199;BME280;2113;50.946;14.610;2022-10-10T13:01:52;97192.69;;;17.09;47.32
4199;BME280;2113;50.946;14.610;2022-10-10T13:04:23;97184.72;;;17.10;47.33
4199;BME280;2113;50.946;14.610;2022-10-10T13:06:56;97170.13;;;17.62;47.26
4199;BME280;2113;50.946;14.610;2022-10-10T13:09:29;97182.09;;;16.96;48.04
4199;BME280;2113;50.946;14.610;2022-10-10T13:12:03;97166.88;;;17.86;46.37
4199;BME280;2113;50.946;14.610;2022-10-10T13:14:40;97165.97;;;18.27;45.01
4199;BME280;2113;50.946;14.610;2022-10-10T13:17:27;97185.50;;;17.54;46.31
4199;BME280;2113;50.946;14.610;2022-10-10T13:19:58;97179.91;;;17.46;47.05
4199;BME280;2113;50.946;14.610;2022-10-10T13:22:27;97183.03;;;17.09;48.12
4199;BME280;2113;50.946;14.610;2022-10-10T13:24:58;97192.47;;;17.55;47.74
4199;BME280;2113;50.946;14.610;2022-10-10T13:27:29;97190.81;;;17.25;48.32
4199;BME280;2113;50.946;14.610;2022-10-10T13:29:58;97190.44;;;17.02;48.03
4199;BME280;2113;50.946;14.610;2022-10-10T13:32:28;97175.22;;;18.19;47.73
4199;BME280;2113;50.946;14.610;2022-10-10T13:35:01;97183.97;;;17.93;46.94
4199;BME280;2113;50.946;14.610;2022-10-10T13:37:31;97186.94;;;18.01;47.44
4199;BME280;2113;50.946;14.610;2022-10-10T13:40:02;97192.09;;;17.61;46.90
4199;BME280;2113;50.946;14.610;2022-10-10T13:42:33;97179.28;;;17.69;47.28
4199;BME280;2113;50.946;14.610;2022-10-10T13:45:28;97185.16;;;18.29;46.23